AFR832 DNAA-DXXX
Flight info
| Callsign | AFR832 |
|---|---|
| Flight time | 1h 2m |
| Altitude | 38000 |
| Route | IKSEM DCT VONUK UH340 LAG UL433 MONOS |
| Aircraft | B772/H-SDE2E3FGHIJ3J5M1P2RWXYZ/LB1D1 |
Departure
| Time | 2026-04-22 18:56 |
|---|---|
| Airport | Nnamdi Azikiwe International Airport (DNAA) |
Arrival
| Time | 2026-04-22 19:58 |
|---|---|
| Airport | Lomé–Tokoin International Airport (DXXX) |
| Time | Latitude | Longitude | Altitude | Speed | Heading |
|---|---|---|---|---|---|
| 2026-04-22 18:13 | 9.00705 | 7.26695 | 1130 ft | 0 kts | 180° |
| 2026-04-22 18:47 | 9.00716 | 7.26695 | 1132 ft | 4 kts | 179° |
| 2026-04-22 18:47 | 9.00738 | 7.26693 | 1135 ft | 2 kts | 162° |
| 2026-04-22 18:48 | 9.00762 | 7.26685 | 1134 ft | 4 kts | 179° |
| 2026-04-22 18:48 | 9.00786 | 7.26688 | 1135 ft | 4 kts | 215° |
| 2026-04-22 18:48 | 9.00796 | 7.26707 | 1134 ft | 4 kts | 275° |
| 2026-04-22 18:48 | 9.00793 | 7.26733 | 1133 ft | 3 kts | 271° |
| 2026-04-22 18:49 | 9.00793 | 7.26737 | 1134 ft | 0 kts | 270° |
| 2026-04-22 18:50 | 9.00793 | 7.26690 | 1135 ft | 11 kts | 270° |
| 2026-04-22 18:51 | 9.00819 | 7.26637 | 1121 ft | 9 kts | 347° |
| 2026-04-22 18:51 | 9.00881 | 7.26664 | 1123 ft | 10 kts | 36° |
| 2026-04-22 18:51 | 9.00953 | 7.26715 | 1118 ft | 14 kts | 35° |
| 2026-04-22 18:51 | 9.01031 | 7.26770 | 1117 ft | 14 kts | 35° |
| 2026-04-22 18:52 | 9.01109 | 7.26824 | 1118 ft | 14 kts | 35° |
| 2026-04-22 18:52 | 9.01186 | 7.26880 | 1137 ft | 14 kts | 35° |
| 2026-04-22 18:52 | 9.01264 | 7.26935 | 1135 ft | 14 kts | 35° |
| 2026-04-22 18:52 | 9.01340 | 7.26988 | 1136 ft | 14 kts | 35° |
| 2026-04-22 18:53 | 9.01418 | 7.27043 | 1136 ft | 14 kts | 35° |
| 2026-04-22 18:53 | 9.01496 | 7.27098 | 1137 ft | 14 kts | 35° |
| 2026-04-22 18:53 | 9.01573 | 7.27153 | 1136 ft | 14 kts | 35° |
| 2026-04-22 18:53 | 9.01650 | 7.27208 | 1136 ft | 14 kts | 35° |
| 2026-04-22 18:54 | 9.01728 | 7.27263 | 1136 ft | 14 kts | 35° |
| 2026-04-22 18:54 | 9.01806 | 7.27318 | 1138 ft | 14 kts | 35° |
| 2026-04-22 18:54 | 9.01868 | 7.27359 | 1135 ft | 9 kts | 25° |
| 2026-04-22 18:54 | 9.01925 | 7.27355 | 1136 ft | 9 kts | 329° |
| 2026-04-22 18:55 | 9.01963 | 7.27309 | 1139 ft | 9 kts | 306° |
| 2026-04-22 18:55 | 9.01988 | 7.27255 | 1137 ft | 9 kts | 262° |
| 2026-04-22 18:55 | 9.01939 | 7.27206 | 1136 ft | 19 kts | 214° |
| 2026-04-22 18:55 | 9.01612 | 7.26976 | 1138 ft | 102 kts | 215° |
| 2026-04-22 18:56 | 9.00799 | 7.26401 | 1207 ft | 173 kts | 215° |
| 2026-04-22 18:56 | 8.99804 | 7.25706 | 2157 ft | 170 kts | 216° |
| 2026-04-22 18:56 | 8.98842 | 7.25007 | 3123 ft | 178 kts | 224° |
| 2026-04-22 18:56 | 8.98067 | 7.23944 | 3634 ft | 200 kts | 239° |
| 2026-04-22 18:57 | 8.97259 | 7.22685 | 4064 ft | 227 kts | 238° |
| 2026-04-22 18:57 | 8.96342 | 7.21284 | 4567 ft | 250 kts | 238° |
| 2026-04-22 18:57 | 8.95349 | 7.19770 | 5204 ft | 265 kts | 237° |
| 2026-04-22 18:57 | 8.94309 | 7.18197 | 6037 ft | 273 kts | 237° |
| 2026-04-22 18:58 | 8.93230 | 7.16569 | 6739 ft | 285 kts | 237° |
| 2026-04-22 18:58 | 8.92102 | 7.14876 | 7460 ft | 294 kts | 237° |
| 2026-04-22 18:58 | 8.90943 | 7.13147 | 8214 ft | 301 kts | 237° |
| 2026-04-22 18:58 | 8.89753 | 7.11380 | 8956 ft | 308 kts | 236° |
| 2026-04-22 18:59 | 8.88532 | 7.09570 | 9664 ft | 315 kts | 236° |
| 2026-04-22 18:59 | 8.87274 | 7.07709 | 10213 ft | 328 kts | 236° |
| 2026-04-22 18:59 | 8.85938 | 7.05734 | 10434 ft | 352 kts | 236° |
| 2026-04-22 18:59 | 8.84533 | 7.03657 | 11098 ft | 362 kts | 236° |
| 2026-04-22 19:00 | 8.83118 | 7.01569 | 12038 ft | 367 kts | 235° |
| 2026-04-22 19:00 | 8.81677 | 6.99443 | 13187 ft | 367 kts | 235° |
| 2026-04-22 19:00 | 8.80228 | 6.97304 | 14248 ft | 370 kts | 235° |
| 2026-04-22 19:00 | 8.78766 | 6.95145 | 15185 ft | 375 kts | 235° |
| 2026-04-22 19:01 | 8.77263 | 6.92927 | 16135 ft | 380 kts | 235° |
| 2026-04-22 19:01 | 8.75758 | 6.90705 | 17097 ft | 385 kts | 235° |
| 2026-04-22 19:01 | 8.74238 | 6.88463 | 18049 ft | 389 kts | 235° |
| 2026-04-22 19:01 | 8.72718 | 6.86220 | 18833 ft | 394 kts | 235° |
| 2026-04-22 19:02 | 8.71162 | 6.83925 | 19612 ft | 398 kts | 236° |
| 2026-04-22 19:02 | 8.69587 | 6.81601 | 20370 ft | 403 kts | 236° |
| 2026-04-22 19:02 | 8.67993 | 6.79250 | 21131 ft | 407 kts | 236° |
| 2026-04-22 19:02 | 8.66384 | 6.76878 | 21895 ft | 411 kts | 236° |
| 2026-04-22 19:03 | 8.64758 | 6.74480 | 22591 ft | 416 kts | 236° |
| 2026-04-22 19:03 | 8.63112 | 6.72053 | 23255 ft | 422 kts | 236° |
| 2026-04-22 19:03 | 8.61445 | 6.69597 | 23834 ft | 426 kts | 237° |
| 2026-04-22 19:03 | 8.59761 | 6.67114 | 24394 ft | 430 kts | 237° |
| 2026-04-22 19:04 | 8.58063 | 6.64612 | 24965 ft | 434 kts | 237° |
| 2026-04-22 19:04 | 8.56346 | 6.62083 | 25527 ft | 438 kts | 238° |
| 2026-04-22 19:04 | 8.54555 | 6.59579 | 26084 ft | 443 kts | 232° |
| 2026-04-22 19:04 | 8.52320 | 6.57395 | 26566 ft | 452 kts | 222° |
| 2026-04-22 19:05 | 8.49861 | 6.55379 | 27105 ft | 457 kts | 221° |
| 2026-04-22 19:05 | 8.47394 | 6.53329 | 27667 ft | 461 kts | 223° |
| 2026-04-22 19:05 | 8.44956 | 6.51211 | 28240 ft | 464 kts | 224° |
| 2026-04-22 19:05 | 8.42524 | 6.49040 | 28784 ft | 468 kts | 226° |
| 2026-04-22 19:06 | 8.40253 | 6.46675 | 29337 ft | 469 kts | 233° |
| 2026-04-22 19:06 | 8.38237 | 6.44079 | 29869 ft | 471 kts | 239° |
| 2026-04-22 19:06 | 8.36460 | 6.41303 | 30385 ft | 470 kts | 245° |
| 2026-04-22 19:07 | 8.33390 | 6.35498 | 31637 ft | 468 kts | 246° |
| 2026-04-22 19:07 | 8.31877 | 6.32589 | 32251 ft | 468 kts | 245° |
| 2026-04-22 19:07 | 8.30357 | 6.29678 | 32793 ft | 470 kts | 245° |
| 2026-04-22 19:07 | 8.28822 | 6.26757 | 33298 ft | 472 kts | 244° |
| 2026-04-22 19:08 | 8.27277 | 6.23835 | 33882 ft | 471 kts | 244° |
| 2026-04-22 19:08 | 8.25733 | 6.20927 | 34509 ft | 468 kts | 244° |
| 2026-04-22 19:08 | 8.24198 | 6.18043 | 35140 ft | 465 kts | 243° |
| 2026-04-22 19:08 | 8.22671 | 6.15175 | 35681 ft | 464 kts | 243° |
| 2026-04-22 19:09 | 8.21136 | 6.12290 | 35815 ft | 469 kts | 243° |
| 2026-04-22 19:09 | 8.18574 | 6.07479 | 35816 ft | 464 kts | 243° |
| 2026-04-22 19:10 | 8.15011 | 6.00786 | 35821 ft | 464 kts | 243° |
| 2026-04-22 19:10 | 8.11975 | 5.95082 | 35836 ft | 465 kts | 243° |
| 2026-04-22 19:11 | 8.08913 | 5.89335 | 35828 ft | 465 kts | 243° |
| 2026-04-22 19:11 | 8.05842 | 5.83572 | 36016 ft | 469 kts | 243° |
| 2026-04-22 19:11 | 8.04302 | 5.80682 | 36561 ft | 466 kts | 242° |
| 2026-04-22 19:12 | 8.02772 | 5.77812 | 37229 ft | 462 kts | 242° |
| 2026-04-22 19:12 | 8.01255 | 5.74967 | 37791 ft | 460 kts | 242° |
| 2026-04-22 19:12 | 7.99730 | 5.72108 | 37843 ft | 465 kts | 242° |
| 2026-04-22 19:13 | 7.96690 | 5.66417 | 37837 ft | 457 kts | 242° |
| 2026-04-22 19:13 | 7.93669 | 5.60768 | 37856 ft | 458 kts | 242° |
| 2026-04-22 19:14 | 7.90636 | 5.55098 | 37849 ft | 460 kts | 242° |
| 2026-04-22 19:14 | 7.87596 | 5.49414 | 37850 ft | 460 kts | 242° |
| 2026-04-22 19:15 | 7.85069 | 5.44692 | 37861 ft | 460 kts | 242° |
| 2026-04-22 19:15 | 7.81524 | 5.38068 | 37862 ft | 459 kts | 242° |
| 2026-04-22 19:16 | 7.78494 | 5.32409 | 37864 ft | 458 kts | 242° |
| 2026-04-22 19:16 | 7.75465 | 5.26755 | 37868 ft | 458 kts | 242° |
| 2026-04-22 19:17 | 7.72434 | 5.21099 | 37864 ft | 458 kts | 242° |
| 2026-04-22 19:17 | 7.69404 | 5.15446 | 37857 ft | 459 kts | 242° |
| 2026-04-22 19:18 | 7.66371 | 5.09790 | 37865 ft | 458 kts | 242° |
| 2026-04-22 19:18 | 7.63358 | 5.04175 | 37861 ft | 458 kts | 242° |
| 2026-04-22 19:19 | 7.60324 | 4.98521 | 37857 ft | 458 kts | 242° |
| 2026-04-22 19:19 | 7.57290 | 4.92871 | 37865 ft | 458 kts | 242° |
| 2026-04-22 19:20 | 7.54259 | 4.87227 | 37856 ft | 459 kts | 241° |
| 2026-04-22 19:20 | 7.51217 | 4.81566 | 37859 ft | 459 kts | 241° |
| 2026-04-22 19:21 | 7.48175 | 4.75908 | 37855 ft | 459 kts | 241° |
| 2026-04-22 19:21 | 7.45132 | 4.70249 | 37854 ft | 459 kts | 241° |
| 2026-04-22 19:22 | 7.42091 | 4.64595 | 37852 ft | 459 kts | 241° |
| 2026-04-22 19:22 | 7.39050 | 4.58942 | 37850 ft | 459 kts | 241° |
| 2026-04-22 19:23 | 7.36007 | 4.53288 | 37853 ft | 459 kts | 241° |
| 2026-04-22 19:23 | 7.32962 | 4.47634 | 37851 ft | 459 kts | 241° |
| 2026-04-22 19:24 | 7.30429 | 4.42932 | 37848 ft | 459 kts | 241° |
| 2026-04-22 19:24 | 7.27383 | 4.37278 | 37851 ft | 459 kts | 241° |
| 2026-04-22 19:25 | 7.24337 | 4.31624 | 37853 ft | 459 kts | 241° |
| 2026-04-22 19:25 | 7.21288 | 4.25972 | 37844 ft | 459 kts | 241° |
| 2026-04-22 19:26 | 7.18237 | 4.20326 | 37843 ft | 459 kts | 241° |
| 2026-04-22 19:26 | 7.15185 | 4.14677 | 37849 ft | 459 kts | 240° |
| 2026-04-22 19:27 | 7.12129 | 4.09021 | 37849 ft | 460 kts | 240° |
| 2026-04-22 19:27 | 7.09073 | 4.03365 | 37843 ft | 460 kts | 241° |
| 2026-04-22 19:28 | 7.06015 | 3.97708 | 37847 ft | 460 kts | 241° |
| 2026-04-22 19:28 | 7.02959 | 3.92058 | 37846 ft | 459 kts | 240° |
| 2026-04-22 19:29 | 6.99906 | 3.86413 | 37842 ft | 459 kts | 241° |
| 2026-04-22 19:29 | 6.96848 | 3.80764 | 37843 ft | 459 kts | 241° |
| 2026-04-22 19:30 | 6.94310 | 3.76073 | 37839 ft | 459 kts | 240° |
| 2026-04-22 19:30 | 6.90742 | 3.69485 | 37841 ft | 458 kts | 240° |
| 2026-04-22 19:31 | 6.87713 | 3.63894 | 37842 ft | 458 kts | 241° |
| 2026-04-22 19:31 | 6.84661 | 3.58261 | 37842 ft | 459 kts | 240° |
| 2026-04-22 19:32 | 6.81600 | 3.52615 | 37839 ft | 460 kts | 240° |
| 2026-04-22 19:32 | 6.80063 | 3.49780 | 37252 ft | 464 kts | 241° |
| 2026-04-22 19:32 | 6.78519 | 3.46935 | 36661 ft | 462 kts | 241° |
| 2026-04-22 19:32 | 6.76985 | 3.44105 | 36140 ft | 458 kts | 242° |
| 2026-04-22 19:33 | 6.75467 | 3.41306 | 35670 ft | 453 kts | 242° |
| 2026-04-22 19:33 | 6.73964 | 3.38535 | 35173 ft | 449 kts | 243° |
| 2026-04-22 19:33 | 6.72473 | 3.35786 | 34696 ft | 446 kts | 243° |
| 2026-04-22 19:33 | 6.71011 | 3.33043 | 34196 ft | 443 kts | 245° |
| 2026-04-22 19:34 | 6.69789 | 3.30218 | 33705 ft | 439 kts | 251° |
| 2026-04-22 19:34 | 6.68722 | 3.27352 | 33187 ft | 435 kts | 251° |
| 2026-04-22 19:34 | 6.67682 | 3.24507 | 32708 ft | 432 kts | 252° |
| 2026-04-22 19:34 | 6.66649 | 3.21687 | 32248 ft | 428 kts | 252° |
| 2026-04-22 19:35 | 6.65620 | 3.18893 | 31793 ft | 424 kts | 252° |
| 2026-04-22 19:35 | 6.64593 | 3.16123 | 31339 ft | 420 kts | 252° |
| 2026-04-22 19:35 | 6.63571 | 3.13381 | 30896 ft | 417 kts | 252° |
| 2026-04-22 19:35 | 6.62553 | 3.10658 | 30440 ft | 415 kts | 252° |
| 2026-04-22 19:36 | 6.61540 | 3.07950 | 29986 ft | 413 kts | 253° |
| 2026-04-22 19:36 | 6.60529 | 3.05249 | 29462 ft | 411 kts | 253° |
| 2026-04-22 19:36 | 6.59525 | 3.02562 | 28953 ft | 409 kts | 252° |
| 2026-04-22 19:36 | 6.58525 | 2.99891 | 28460 ft | 407 kts | 252° |
| 2026-04-22 19:37 | 6.57531 | 2.97235 | 27987 ft | 405 kts | 252° |
| 2026-04-22 19:37 | 6.56542 | 2.94595 | 27529 ft | 402 kts | 252° |
| 2026-04-22 19:37 | 6.55560 | 2.91973 | 27062 ft | 400 kts | 251° |
| 2026-04-22 19:37 | 6.54582 | 2.89364 | 26613 ft | 398 kts | 251° |
| 2026-04-22 19:38 | 6.53610 | 2.86767 | 26177 ft | 396 kts | 251° |
| 2026-04-22 19:38 | 6.52643 | 2.84186 | 25740 ft | 394 kts | 251° |
| 2026-04-22 19:38 | 6.51679 | 2.81615 | 25298 ft | 392 kts | 251° |
| 2026-04-22 19:38 | 6.50719 | 2.79055 | 24858 ft | 390 kts | 250° |
| 2026-04-22 19:39 | 6.49783 | 2.76501 | 24428 ft | 388 kts | 253° |
| 2026-04-22 19:39 | 6.49084 | 2.73885 | 23996 ft | 386 kts | 260° |
| 2026-04-22 19:39 | 6.48697 | 2.71225 | 23576 ft | 384 kts | 264° |
| 2026-04-22 19:39 | 6.48395 | 2.68567 | 23110 ft | 384 kts | 264° |
| 2026-04-22 19:40 | 6.48092 | 2.65889 | 22752 ft | 387 kts | 264° |
| 2026-04-22 19:40 | 6.47783 | 2.63188 | 22353 ft | 390 kts | 264° |
| 2026-04-22 19:40 | 6.47469 | 2.60468 | 21933 ft | 394 kts | 263° |
| 2026-04-22 19:40 | 6.47148 | 2.57719 | 21505 ft | 398 kts | 264° |
| 2026-04-22 19:41 | 6.46822 | 2.54944 | 21076 ft | 401 kts | 264° |
| 2026-04-22 19:41 | 6.46491 | 2.52147 | 20633 ft | 405 kts | 263° |
| 2026-04-22 19:41 | 6.46157 | 2.49329 | 20185 ft | 408 kts | 264° |
| 2026-04-22 19:41 | 6.45819 | 2.46485 | 19720 ft | 411 kts | 264° |
| 2026-04-22 19:42 | 6.45484 | 2.43661 | 19263 ft | 414 kts | 263° |
| 2026-04-22 19:42 | 6.45141 | 2.40777 | 18790 ft | 417 kts | 263° |
| 2026-04-22 19:42 | 6.44795 | 2.37875 | 18311 ft | 417 kts | 263° |
| 2026-04-22 19:42 | 6.44451 | 2.34996 | 17783 ft | 412 kts | 263° |
| 2026-04-22 19:43 | 6.43777 | 2.29346 | 16796 ft | 401 kts | 263° |
| 2026-04-22 19:43 | 6.43447 | 2.26584 | 16327 ft | 396 kts | 263° |
| 2026-04-22 19:43 | 6.43121 | 2.23847 | 15872 ft | 392 kts | 263° |
| 2026-04-22 19:44 | 6.42798 | 2.21141 | 15410 ft | 388 kts | 263° |
| 2026-04-22 19:44 | 6.42478 | 2.18461 | 14974 ft | 384 kts | 263° |
| 2026-04-22 19:44 | 6.42161 | 2.15806 | 14518 ft | 381 kts | 263° |
| 2026-04-22 19:44 | 6.41846 | 2.13170 | 14064 ft | 378 kts | 263° |
| 2026-04-22 19:45 | 6.41533 | 2.10553 | 13611 ft | 376 kts | 263° |
| 2026-04-22 19:45 | 6.41222 | 2.07953 | 13123 ft | 373 kts | 263° |
| 2026-04-22 19:45 | 6.40914 | 2.05377 | 12675 ft | 369 kts | 263° |
| 2026-04-22 19:45 | 6.40609 | 2.02830 | 12237 ft | 365 kts | 263° |
| 2026-04-22 19:46 | 6.40306 | 2.00310 | 11805 ft | 361 kts | 264° |
| 2026-04-22 19:46 | 6.40008 | 1.97819 | 11400 ft | 357 kts | 264° |
| 2026-04-22 19:46 | 6.39713 | 1.95358 | 10993 ft | 353 kts | 264° |
| 2026-04-22 19:46 | 6.39421 | 1.92923 | 10588 ft | 350 kts | 264° |
| 2026-04-22 19:47 | 6.39131 | 1.90506 | 10269 ft | 344 kts | 264° |
| 2026-04-22 19:47 | 6.38849 | 1.88166 | 10110 ft | 332 kts | 264° |
| 2026-04-22 19:47 | 6.38576 | 1.85894 | 9911 ft | 324 kts | 264° |
| 2026-04-22 19:47 | 6.38310 | 1.83676 | 9688 ft | 317 kts | 264° |
| 2026-04-22 19:48 | 6.38046 | 1.81480 | 9348 ft | 314 kts | 264° |
| 2026-04-22 19:48 | 6.37786 | 1.79311 | 8995 ft | 307 kts | 264° |
| 2026-04-22 19:48 | 6.37535 | 1.77226 | 8609 ft | 296 kts | 264° |
| 2026-04-22 19:48 | 6.37289 | 1.75176 | 8304 ft | 294 kts | 264° |
| 2026-04-22 19:49 | 6.37044 | 1.73138 | 7993 ft | 293 kts | 264° |
| 2026-04-22 19:49 | 6.36801 | 1.71113 | 7691 ft | 291 kts | 264° |
| 2026-04-22 19:49 | 6.36559 | 1.69101 | 7390 ft | 289 kts | 264° |
| 2026-04-22 19:49 | 6.36318 | 1.67100 | 7090 ft | 287 kts | 264° |
| 2026-04-22 19:50 | 6.36078 | 1.65111 | 6806 ft | 286 kts | 265° |
| 2026-04-22 19:50 | 6.35840 | 1.63134 | 6504 ft | 284 kts | 264° |
| 2026-04-22 19:50 | 6.35603 | 1.61165 | 6209 ft | 283 kts | 264° |
| 2026-04-22 19:50 | 6.35367 | 1.59206 | 5910 ft | 282 kts | 264° |
| 2026-04-22 19:51 | 6.35132 | 1.57257 | 5610 ft | 280 kts | 265° |
| 2026-04-22 19:51 | 6.34898 | 1.55316 | 5314 ft | 279 kts | 264° |
| 2026-04-22 19:51 | 6.34667 | 1.53387 | 5025 ft | 277 kts | 264° |
| 2026-04-22 19:51 | 6.34435 | 1.51470 | 4746 ft | 276 kts | 264° |
| 2026-04-22 19:52 | 6.34205 | 1.49564 | 4450 ft | 274 kts | 263° |
| 2026-04-22 19:52 | 6.33976 | 1.47669 | 4158 ft | 272 kts | 263° |
| 2026-04-22 19:52 | 6.33749 | 1.45788 | 3876 ft | 270 kts | 263° |
| 2026-04-22 19:52 | 6.33523 | 1.43922 | 3656 ft | 266 kts | 262° |
| 2026-04-22 19:53 | 6.33304 | 1.42105 | 3523 ft | 258 kts | 262° |
| 2026-04-22 19:53 | 6.33091 | 1.40342 | 3404 ft | 250 kts | 262° |
| 2026-04-22 19:53 | 6.32766 | 1.38681 | 3266 ft | 235 kts | 244° |
| 2026-04-22 19:53 | 6.31769 | 1.37469 | 3189 ft | 221 kts | 216° |
| 2026-04-22 19:54 | 6.30557 | 1.36609 | 3100 ft | 208 kts | 217° |
| 2026-04-22 19:54 | 6.29441 | 1.35723 | 2915 ft | 201 kts | 218° |
| 2026-04-22 19:54 | 6.28364 | 1.34853 | 2637 ft | 195 kts | 218° |
| 2026-04-22 19:54 | 6.27322 | 1.34018 | 2392 ft | 188 kts | 218° |
| 2026-04-22 19:55 | 6.26335 | 1.33227 | 2165 ft | 180 kts | 218° |
| 2026-04-22 19:55 | 6.25392 | 1.32471 | 1965 ft | 169 kts | 217° |
| 2026-04-22 19:55 | 6.24507 | 1.31762 | 1735 ft | 157 kts | 217° |
| 2026-04-22 19:55 | 6.23684 | 1.31103 | 1541 ft | 145 kts | 216° |
| 2026-04-22 19:56 | 6.22923 | 1.30493 | 1374 ft | 137 kts | 216° |
| 2026-04-22 19:56 | 6.22186 | 1.29903 | 1211 ft | 134 kts | 217° |
| 2026-04-22 19:56 | 6.21465 | 1.29326 | 1024 ft | 130 kts | 217° |
| 2026-04-22 19:56 | 6.20766 | 1.28765 | 883 ft | 130 kts | 216° |
| 2026-04-22 19:57 | 6.20055 | 1.28196 | 716 ft | 133 kts | 218° |
| 2026-04-22 19:57 | 6.19342 | 1.27620 | 539 ft | 130 kts | 218° |
| 2026-04-22 19:57 | 6.18651 | 1.27063 | 377 ft | 126 kts | 216° |
| 2026-04-22 19:57 | 6.17962 | 1.26521 | 183 ft | 126 kts | 219° |
| 2026-04-22 19:58 | 6.17277 | 1.25973 | 65 ft | 120 kts | 217° |
| 2026-04-22 19:58 | 6.16732 | 1.25540 | 69 ft | 78 kts | 218° |
| 2026-04-22 19:58 | 6.16419 | 1.25292 | 62 ft | 47 kts | 218° |
| 2026-04-22 19:58 | 6.16201 | 1.25120 | 63 ft | 29 kts | 218° |
| 2026-04-22 19:59 | 6.16042 | 1.24993 | 64 ft | 29 kts | 218° |
| 2026-04-22 20:00 | 6.16108 | 1.24805 | 66 ft | 11 kts | 39° |
| 2026-04-22 20:00 | 6.16176 | 1.24860 | 63 ft | 14 kts | 38° |
| 2026-04-22 20:01 | 6.16254 | 1.24922 | 62 ft | 14 kts | 38° |
| 2026-04-22 20:01 | 6.16332 | 1.24984 | 67 ft | 14 kts | 38° |
| 2026-04-22 20:01 | 6.16413 | 1.25048 | 66 ft | 16 kts | 38° |
| 2026-04-22 20:01 | 6.16500 | 1.25117 | 68 ft | 16 kts | 38° |
| 2026-04-22 20:02 | 6.16587 | 1.25186 | 65 ft | 16 kts | 38° |
| 2026-04-22 20:02 | 6.16670 | 1.25252 | 66 ft | 12 kts | 38° |
| 2026-04-22 20:02 | 6.16729 | 1.25312 | 64 ft | 12 kts | 40° |
| 2026-04-22 20:02 | 6.16794 | 1.25364 | 71 ft | 12 kts | 39° |
| 2026-04-22 20:03 | 6.16859 | 1.25417 | 69 ft | 12 kts | 39° |
| 2026-04-22 20:03 | 6.16924 | 1.25470 | 69 ft | 12 kts | 39° |
| 2026-04-22 20:03 | 6.16972 | 1.25508 | 69 ft | 5 kts | 38° |
| 2026-04-22 20:03 | 6.17000 | 1.25518 | 68 ft | 5 kts | 354° |
| 2026-04-22 20:04 | 6.17026 | 1.25500 | 67 ft | 5 kts | 318° |
| 2026-04-22 20:04 | 6.17044 | 1.25478 | 84 ft | 3 kts | 309° |
| 2026-04-22 20:04 | 6.17051 | 1.25469 | 84 ft | 0 kts | 308° |